Whitesville, NY (14897)

12:07 AM EST on February 08, 2016 (GMT -0500)
Shongo | | Change Station
CLOSE
Current Station
Personal Weather Station
Location: Wellsville, NY
Elevation: 1663 ft
Nearby Weather Stations

Elev 1663 ft 42.02 °N, 77.89 °W | Updated 29 seconds ago

Overcast
Overcast
28.0 °F
Feels Like 28 °F
N
0.0
Wind Variable Wind from South
Gusts 0.0 mph

Today
High -- | Low -- °F
--% Chance of Precip.
Yesterday
High -- | Low -- °F
Precip. -- in
Pressure 29.88 in
Visibility 10.0 miles
Clouds Overcast 12000 ft
Windchill 28 °F
Dew Point 21 °F
Humidity 75%
Rainfall 0.00 in
Snow Depth Not available.
7:16 AM 5:34 PM
Waning Crescent, 0% visible
METAR KELZ 080456Z AUTO 12003KT 10SM OVC120 02/M05 A2983 RMK AO2 SLP118 T00171050 400671044 $
Pressure 29.88 in
Visibility 10.0 miles
Clouds Overcast 12000 ft
Windchill 28 °F
Dew Point 21 °F
Humidity 75%
Rainfall 0.00 in
Snow Depth Not available.
7:16 AM 5:34 PM
Waning Crescent, 0% visible
METAR KELZ 080456Z AUTO 12003KT 10SM OVC120 02/M05 A2983 RMK AO2 SLP118 T00171050 400671044 $

10-Day Weather Forecast

Almanac

Astronomy

Feb. 08, 2016 Rise Set
Actual Time
Civil Twilight
Nautical Twilight
Astronomical Twilight
Moon
Length of Visible Light
Length of Day
Tomorrow will be .
, % of the Moon is Illuminated

Today's Extremes

State Highs State Lows

Community

WunderPhotos

Upload Photos

1,891,382 photos uploaded!

WunderBlog® & News

Nearby

Air Quality

  Air Quality AQ Index Pollutant
Not available.

Snow Depth

Station Depth Elevation

Earthquake Activity

City Distance Mag. Time & Date
Minimum magnitude displayed is 2.5.

Coastal Water Temperatures

Place Temperature

Stations

Nearby Weather Stations

Station Location Temp. Windchill Dew Point Humidity Wind Precip. Elev Updated Type
                   

Watches & Warnings

There are currently no watches in effect.